This is the latest recevied weather packets stored in our database for station/object N3SBK. If no packets are shown the sender has not sent any weather packets the latest 10 day(s).
| Time | Temp. | Humidity | Pressure | Rain* | Wind** | Luminosity | Snow |
|---|---|---|---|---|---|---|---|
| 1777930772 | 22.22° C | 42% | 999.4 hPa | 0 mm | - | 235 W/m² | - |
| 1777930468 | 22.22° C | 42% | 999.3 hPa | 0 mm | - | 248 W/m² | - |
| 1777930165 | 22.78° C | 41% | 999.2 hPa | 0 mm | - | 263 W/m² | - |
| 1777929861 | 22.22° C | 42% | 999.4 hPa | 0 mm | - | 280 W/m² | - |
| 1777929559 | 22.22° C | 42% | 999.6 hPa | 0 mm | - | 80 W/m² | - |
| 1777929255 | 21.67° C | 44% | 999.6 hPa | 0 mm | - | 345 W/m² | - |
| 1777928952 | 22.22° C | 43% | 999.3 hPa | 0 mm | - | 344 W/m² | - |
| 1777928649 | 22.78° C | 42% | 999.3 hPa | 0 mm | - | 293 W/m² | - |
| 1777928346 | 22.78° C | 41% | 999.4 hPa | 0 mm | - | 348 W/m² | - |
| 1777928044 | 22.78° C | 43% | 999.3 hPa | 0 mm | - | 359 W/m² | - |
| 1777927742 | 23.33° C | 42% | 999.3 hPa | 0 mm | - | 374 W/m² | - |
| 1777927440 | 22.78° C | 43% | 999.4 hPa | 0 mm | - | 389 W/m² | - |
| 1777927139 | 22.78° C | 42% | 999.2 hPa | 0 mm | - | 408 W/m² | - |
| 1777926836 | 22.78° C | 42% | 999.3 hPa | 0 mm | - | 420 W/m² | - |
| 1777926532 | 22.78° C | 41% | 999.4 hPa | 0 mm | - | 436 W/m² | - |
| 1777926229 | 23.33° C | 40% | 999.2 hPa | 0 mm | - | 441 W/m² | - |
| 1777925925 | 23.33° C | 41% | 999.3 hPa | 0 mm | - | 466 W/m² | - |
| 1777925623 | 22.78° C | 40% | 999.2 hPa | 0 mm | - | 486 W/m² | - |
| 1777925320 | 21.67° C | 42% | 999.4 hPa | 0 mm | - | 555 W/m² | - |
| 1777925017 | 21.67° C | 43% | 999.5 hPa | 0 mm | - | 136 W/m² | - |
| 1777924713 | 22.78° C | 40% | 999.2 hPa | 0 mm | - | 145 W/m² | - |
| 1777924409 | 22.78° C | 39% | 999.3 hPa | 0 mm | - | 154 W/m² | - |
| 1777924106 | 22.78° C | 41% | 999.4 hPa | 0 mm | - | 626 W/m² | - |
| 1777923802 | 22.78° C | 41% | 999.2 hPa | 0 mm | - | 665 W/m² | - |
| 1777923498 | 23.33° C | 40% | 999.4 hPa | 0 mm | - | 166 W/m² | - |
* Rain latest hour (hover to see other rain measurements)
** Current wind speed in m/s (hover to see current wind gust speed)